sensor_id;sensor_type;location;lat;lon;timestamp;temperature;humidity
72355;SHT30;60314;55.040;73.076;2022-09-03T00:02:41;16.41;74.27
72355;SHT30;60314;55.040;73.076;2022-09-03T00:05:37;16.38;74.54
72355;SHT30;60314;55.040;73.076;2022-09-03T00:08:31;16.38;74.31
72355;SHT30;60314;55.040;73.076;2022-09-03T00:13:56;16.33;74.56
72355;SHT30;60314;55.040;73.076;2022-09-03T00:16:28;16.33;74.85
72355;SHT30;60314;55.040;73.076;2022-09-03T00:18:59;16.29;75.15
72355;SHT30;60314;55.040;73.076;2022-09-03T00:21:35;16.32;74.84
72355;SHT30;60314;55.040;73.076;2022-09-03T00:24:15;16.33;74.97
72355;SHT30;60314;55.040;73.076;2022-09-03T00:26:49;16.35;75.03
72355;SHT30;60314;55.040;73.076;2022-09-03T00:30:16;16.35;75.04
72355;SHT30;60314;55.040;73.076;2022-09-03T00:33:01;16.35;75.07
72355;SHT30;60314;55.040;73.076;2022-09-03T00:38:14;16.38;75.17
72355;SHT30;60314;55.040;73.076;2022-09-03T00:43:40;16.46;75.01
72355;SHT30;60314;55.040;73.076;2022-09-03T00:49:22;16.55;74.89
72355;SHT30;60314;55.040;73.076;2022-09-03T00:54:53;16.66;74.58
72355;SHT30;60314;55.040;73.076;2022-09-03T00:57:29;16.70;74.33
72355;SHT30;60314;55.040;73.076;2022-09-03T01:00:05;16.76;74.67
72355;SHT30;60314;55.040;73.076;2022-09-03T01:16:14;17.07;73.61
72355;SHT30;60314;55.040;73.076;2022-09-03T01:19:18;17.11;73.20
72355;SHT30;60314;55.040;73.076;2022-09-03T01:31:23;17.48;72.54
72355;SHT30;60314;55.040;73.076;2022-09-03T01:37:36;17.74;72.01
72355;SHT30;60314;55.040;73.076;2022-09-03T01:56:14;18.71;69.54
72355;SHT30;60314;55.040;73.076;2022-09-03T01:59:14;18.94;68.20
72355;SHT30;60314;55.040;73.076;2022-09-03T02:02:01;19.09;68.33
72355;SHT30;60314;55.040;73.076;2022-09-03T02:04:28;19.16;67.83
72355;SHT30;60314;55.040;73.076;2022-09-03T02:07:09;19.29;67.81
72355;SHT30;60314;55.040;73.076;2022-09-03T02:09:36;19.48;66.83
72355;SHT30;60314;55.040;73.076;2022-09-03T02:12:14;19.55;66.06
72355;SHT30;60314;55.040;73.076;2022-09-03T02:14:47;19.60;65.66
72355;SHT30;60314;55.040;73.076;2022-09-03T02:17:24;19.67;65.93
72355;SHT30;60314;55.040;73.076;2022-09-03T02:20:07;19.79;65.52
72355;SHT30;60314;55.040;73.076;2022-09-03T02:22:42;19.90;64.91
72355;SHT30;60314;55.040;73.076;2022-09-03T02:25:08;19.93;64.73
72355;SHT30;60314;55.040;73.076;2022-09-03T02:27:41;20.06;65.19
72355;SHT30;60314;55.040;73.076;2022-09-03T02:30:08;20.17;64.08
72355;SHT30;60314;55.040;73.076;2022-09-03T02:32:35;20.30;63.61
72355;SHT30;60314;55.040;73.076;2022-09-03T02:35:02;20.41;63.28
72355;SHT30;60314;55.040;73.076;2022-09-03T02:37:35;20.52;63.49
72355;SHT30;60314;55.040;73.076;2022-09-03T02:40:02;20.62;62.89
72355;SHT30;60314;55.040;73.076;2022-09-03T02:42:33;20.76;62.40
72355;SHT30;60314;55.040;73.076;2022-09-03T02:45:30;20.85;61.90
72355;SHT30;60314;55.040;73.076;2022-09-03T02:48:02;20.96;61.79
72355;SHT30;60314;55.040;73.076;2022-09-03T02:50:38;21.06;60.84
72355;SHT30;60314;55.040;73.076;2022-09-03T02:53:11;21.16;61.21
72355;SHT30;60314;55.040;73.076;2022-09-03T02:55:38;21.24;60.67
72355;SHT30;60314;55.040;73.076;2022-09-03T02:58:04;21.36;60.69
72355;SHT30;60314;55.040;73.076;2022-09-03T03:00:34;21.51;60.59
72355;SHT30;60314;55.040;73.076;2022-09-03T03:03:05;21.64;60.97
72355;SHT30;60314;55.040;73.076;2022-09-03T03:08:13;21.88;59.06
72355;SHT30;60314;55.040;73.076;2022-09-03T03:10:52;22.01;58.83
72355;SHT30;60314;55.040;73.076;2022-09-03T03:13:19;22.15;58.28
72355;SHT30;60314;55.040;73.076;2022-09-03T03:15:45;22.25;58.76
72355;SHT30;60314;55.040;73.076;2022-09-03T03:18:17;22.36;58.12
72355;SHT30;60314;55.040;73.076;2022-09-03T03:20:45;22.45;57.64
72355;SHT30;60314;55.040;73.076;2022-09-03T03:23:13;22.56;57.38
72355;SHT30;60314;55.040;73.076;2022-09-03T03:25:49;22.73;57.58
72355;SHT30;60314;55.040;73.076;2022-09-03T03:28:26;22.84;57.11
72355;SHT30;60314;55.040;73.076;2022-09-03T03:30:57;22.93;56.70
72355;SHT30;60314;55.040;73.076;2022-09-03T03:33:24;23.08;56.00
72355;SHT30;60314;55.040;73.076;2022-09-03T03:35:50;23.23;56.40
72355;SHT30;60314;55.040;73.076;2022-09-03T03:38:20;23.37;55.28
72355;SHT30;60314;55.040;73.076;2022-09-03T03:40:46;23.48;54.98
72355;SHT30;60314;55.040;73.076;2022-09-03T03:43:13;23.58;55.46
72355;SHT30;60314;55.040;73.076;2022-09-03T03:45:56;23.75;54.88
72355;SHT30;60314;55.040;73.076;2022-09-03T03:48:23;23.90;54.13
72355;SHT30;60314;55.040;73.076;2022-09-03T03:50:50;24.16;53.81
72355;SHT30;60314;55.040;73.076;2022-09-03T03:53:16;24.29;51.98
72355;SHT30;60314;55.040;73.076;2022-09-03T03:55:43;24.39;51.80
72355;SHT30;60314;55.040;73.076;2022-09-03T03:58:09;24.59;51.16
72355;SHT30;60314;55.040;73.076;2022-09-03T04:00:36;24.80;49.39
72355;SHT30;60314;55.040;73.076;2022-09-03T04:03:12;25.01;48.08
72355;SHT30;60314;55.040;73.076;2022-09-03T04:05:39;25.26;47.11
72355;SHT30;60314;55.040;73.076;2022-09-03T04:08:05;25.49;46.17
72355;SHT30;60314;55.040;73.076;2022-09-03T04:10:36;25.70;46.82
72355;SHT30;60314;55.040;73.076;2022-09-03T04:13:03;25.86;45.22
72355;SHT30;60314;55.040;73.076;2022-09-03T04:15:29;26.03;45.70
72355;SHT30;60314;55.040;73.076;2022-09-03T04:17:56;26.24;45.31
72355;SHT30;60314;55.040;73.076;2022-09-03T04:20:22;26.35;43.44
72355;SHT30;60314;55.040;73.076;2022-09-03T04:22:53;26.68;43.54
72355;SHT30;60314;55.040;73.076;2022-09-03T04:25:20;26.82;38.56
72355;SHT30;60314;55.040;73.076;2022-09-03T04:27:56;26.94;38.95
72355;SHT30;60314;55.040;73.076;2022-09-03T04:30:33;27.06;38.70
72355;SHT30;60314;55.040;73.076;2022-09-03T04:32:59;27.19;38.17
72355;SHT30;60314;55.040;73.076;2022-09-03T04:35:26;27.33;39.02
72355;SHT30;60314;55.040;73.076;2022-09-03T04:38:00;27.60;36.91
72355;SHT30;60314;55.040;73.076;2022-09-03T04:40:37;27.95;38.89
72355;SHT30;60314;55.040;73.076;2022-09-03T04:43:09;28.22;37.89
72355;SHT30;60314;55.040;73.076;2022-09-03T04:45:35;28.53;38.20
72355;SHT30;60314;55.040;73.076;2022-09-03T04:48:11;28.72;36.64
72355;SHT30;60314;55.040;73.076;2022-09-03T04:50:48;28.77;37.11
72355;SHT30;60314;55.040;73.076;2022-09-03T04:53:15;28.68;36.70
72355;SHT30;60314;55.040;73.076;2022-09-03T04:55:41;28.60;35.47
72355;SHT30;60314;55.040;73.076;2022-09-03T04:58:08;28.52;34.79
72355;SHT30;60314;55.040;73.076;2022-09-03T05:00:39;28.45;34.95
72355;SHT30;60314;55.040;73.076;2022-09-03T05:03:06;28.34;34.78
72355;SHT30;60314;55.040;73.076;2022-09-03T05:05:41;28.32;35.72
72355;SHT30;60314;55.040;73.076;2022-09-03T05:08:17;28.35;34.35
72355;SHT30;60314;55.040;73.076;2022-09-03T05:11:00;28.38;35.09
72355;SHT30;60314;55.040;73.076;2022-09-03T05:13:36;28.41;33.67
72355;SHT30;60314;55.040;73.076;2022-09-03T05:16:06;28.39;33.29
72355;SHT30;60314;55.040;73.076;2022-09-03T05:18:34;28.59;34.39
72355;SHT30;60314;55.040;73.076;2022-09-03T05:21:16;28.70;32.87
72355;SHT30;60314;55.040;73.076;2022-09-03T05:23:53;28.76;33.34
72355;SHT30;60314;55.040;73.076;2022-09-03T05:26:25;28.77;31.87
72355;SHT30;60314;55.040;73.076;2022-09-03T05:28:54;28.90;32.15
72355;SHT30;60314;55.040;73.076;2022-09-03T05:31:22;29.02;32.34
72355;SHT30;60314;55.040;73.076;2022-09-03T05:33:54;29.03;33.96
72355;SHT30;60314;55.040;73.076;2022-09-03T05:36:30;29.00;31.35
72355;SHT30;60314;55.040;73.076;2022-09-03T05:38:57;28.99;30.90
72355;SHT30;60314;55.040;73.076;2022-09-03T05:41:25;28.95;33.11
72355;SHT30;60314;55.040;73.076;2022-09-03T05:44:02;28.86;33.10
72355;SHT30;60314;55.040;73.076;2022-09-03T05:46:32;28.77;32.82
72355;SHT30;60314;55.040;73.076;2022-09-03T05:49:00;28.73;35.29
72355;SHT30;60314;55.040;73.076;2022-09-03T05:51:38;28.75;32.38
72355;SHT30;60314;55.040;73.076;2022-09-03T05:54:10;28.75;31.93
72355;SHT30;60314;55.040;73.076;2022-09-03T05:56:37;28.69;31.93
72355;SHT30;60314;55.040;73.076;2022-09-03T05:59:15;28.60;31.80
72355;SHT30;60314;55.040;73.076;2022-09-03T06:01:43;28.62;32.96
72355;SHT30;60314;55.040;73.076;2022-09-03T06:04:14;28.76;32.62
72355;SHT30;60314;55.040;73.076;2022-09-03T06:06:44;28.93;33.86
72355;SHT30;60314;55.040;73.076;2022-09-03T06:09:16;29.03;31.13
72355;SHT30;60314;55.040;73.076;2022-09-03T06:11:50;29.10;33.75
72355;SHT30;60314;55.040;73.076;2022-09-03T06:14:23;29.16;33.14
72355;SHT30;60314;55.040;73.076;2022-09-03T06:16:55;29.27;33.20
72355;SHT30;60314;55.040;73.076;2022-09-03T06:19:22;29.38;33.10
72355;SHT30;60314;55.040;73.076;2022-09-03T06:21:48;29.47;33.67
72355;SHT30;60314;55.040;73.076;2022-09-03T06:24:19;29.48;29.60
72355;SHT30;60314;55.040;73.076;2022-09-03T06:26:59;29.51;32.90
72355;SHT30;60314;55.040;73.076;2022-09-03T06:29:26;29.51;32.29
72355;SHT30;60314;55.040;73.076;2022-09-03T06:32:03;29.59;34.24
72355;SHT30;60314;55.040;73.076;2022-09-03T06:34:29;29.67;31.42
72355;SHT30;60314;55.040;73.076;2022-09-03T06:36:56;29.71;31.43
72355;SHT30;60314;55.040;73.076;2022-09-03T06:39:23;29.72;30.67
72355;SHT30;60314;55.040;73.076;2022-09-03T06:41:50;29.68;30.18
72355;SHT30;60314;55.040;73.076;2022-09-03T06:44:24;29.72;31.10
72355;SHT30;60314;55.040;73.076;2022-09-03T06:46:51;29.72;31.99
72355;SHT30;60314;55.040;73.076;2022-09-03T06:49:29;29.74;31.12
72355;SHT30;60314;55.040;73.076;2022-09-03T06:51:56;29.72;33.80
72355;SHT30;60314;55.040;73.076;2022-09-03T06:54:23;29.75;32.52
72355;SHT30;60314;55.040;73.076;2022-09-03T06:56:50;29.85;30.88
72355;SHT30;60314;55.040;73.076;2022-09-03T06:59:16;29.78;32.59
72355;SHT30;60314;55.040;73.076;2022-09-03T07:01:43;29.81;33.17
72355;SHT30;60314;55.040;73.076;2022-09-03T07:04:11;29.77;31.54
72355;SHT30;60314;55.040;73.076;2022-09-03T07:06:39;29.82;31.75
72355;SHT30;60314;55.040;73.076;2022-09-03T07:09:09;29.89;33.87
72355;SHT30;60314;55.040;73.076;2022-09-03T07:11:36;29.95;35.86
72355;SHT30;60314;55.040;73.076;2022-09-03T07:14:05;29.98;32.11
72355;SHT30;60314;55.040;73.076;2022-09-03T07:16:34;30.09;32.61
72355;SHT30;60314;55.040;73.076;2022-09-03T07:19:02;30.12;31.34
72355;SHT30;60314;55.040;73.076;2022-09-03T07:21:36;30.18;33.18
72355;SHT30;60314;55.040;73.076;2022-09-03T07:24:04;30.13;33.52
72355;SHT30;60314;55.040;73.076;2022-09-03T07:26:40;30.22;30.68
72355;SHT30;60314;55.040;73.076;2022-09-03T07:29:09;30.19;32.47
72355;SHT30;60314;55.040;73.076;2022-09-03T07:31:41;30.18;33.38
72355;SHT30;60314;55.040;73.076;2022-09-03T07:34:10;30.10;32.50
72355;SHT30;60314;55.040;73.076;2022-09-03T07:36:47;30.10;31.14
72355;SHT30;60314;55.040;73.076;2022-09-03T07:39:16;30.16;33.77
72355;SHT30;60314;55.040;73.076;2022-09-03T07:41:44;30.18;33.17
72355;SHT30;60314;55.040;73.076;2022-09-03T07:44:15;30.22;33.74
72355;SHT30;60314;55.040;73.076;2022-09-03T07:46:49;30.28;32.95
72355;SHT30;60314;55.040;73.076;2022-09-03T07:49:15;30.33;34.65
72355;SHT30;60314;55.040;73.076;2022-09-03T07:51:45;30.35;31.61
72355;SHT30;60314;55.040;73.076;2022-09-03T07:54:15;30.41;30.91
72355;SHT30;60314;55.040;73.076;2022-09-03T07:56:42;30.37;31.26
72355;SHT30;60314;55.040;73.076;2022-09-03T07:59:18;30.43;31.12
72355;SHT30;60314;55.040;73.076;2022-09-03T08:01:48;30.52;32.59
72355;SHT30;60314;55.040;73.076;2022-09-03T08:04:16;30.43;33.39
72355;SHT30;60314;55.040;73.076;2022-09-03T08:06:42;30.46;33.65
72355;SHT30;60314;55.040;73.076;2022-09-03T08:09:10;30.39;33.78
72355;SHT30;60314;55.040;73.076;2022-09-03T08:11:40;30.37;33.54
72355;SHT30;60314;55.040;73.076;2022-09-03T08:14:10;30.40;32.96
72355;SHT30;60314;55.040;73.076;2022-09-03T08:16:45;30.35;33.48
72355;SHT30;60314;55.040;73.076;2022-09-03T08:19:16;30.19;33.99
72355;SHT30;60314;55.040;73.076;2022-09-03T08:21:46;30.18;33.25
72355;SHT30;60314;55.040;73.076;2022-09-03T08:24:15;30.12;34.99
72355;SHT30;60314;55.040;73.076;2022-09-03T08:26:45;30.06;33.89
72355;SHT30;60314;55.040;73.076;2022-09-03T08:29:12;30.09;33.80
72355;SHT30;60314;55.040;73.076;2022-09-03T08:31:38;30.13;34.11
72355;SHT30;60314;55.040;73.076;2022-09-03T08:34:06;30.15;34.56
72355;SHT30;60314;55.040;73.076;2022-09-03T08:36:37;30.10;33.16
72355;SHT30;60314;55.040;73.076;2022-09-03T08:39:10;30.08;34.08
72355;SHT30;60314;55.040;73.076;2022-09-03T08:47:04;30.04;35.22
72355;SHT30;60314;55.040;73.076;2022-09-03T08:50:03;30.02;33.49
72355;SHT30;60314;55.040;73.076;2022-09-03T08:55:22;29.86;36.82
72355;SHT30;60314;55.040;73.076;2022-09-03T09:00:49;29.68;36.66
72355;SHT30;60314;55.040;73.076;2022-09-03T09:09:06;29.79;35.52
72355;SHT30;60314;55.040;73.076;2022-09-03T09:17:27;29.89;34.62
72355;SHT30;60314;55.040;73.076;2022-09-03T09:22:54;29.88;34.90
72355;SHT30;60314;55.040;73.076;2022-09-03T09:25:32;29.92;36.60
72355;SHT30;60314;55.040;73.076;2022-09-03T09:28:18;29.93;37.32
72355;SHT30;60314;55.040;73.076;2022-09-03T09:30:56;29.98;36.66
72355;SHT30;60314;55.040;73.076;2022-09-03T09:33:33;30.01;37.85
72355;SHT30;60314;55.040;73.076;2022-09-03T09:36:07;30.10;37.35
72355;SHT30;60314;55.040;73.076;2022-09-03T09:38:37;30.10;41.56
72355;SHT30;60314;55.040;73.076;2022-09-03T09:41:15;30.12;35.35
72355;SHT30;60314;55.040;73.076;2022-09-03T09:43:42;30.08;36.37
72355;SHT30;60314;55.040;73.076;2022-09-03T09:46:21;30.06;38.92
72355;SHT30;60314;55.040;73.076;2022-09-03T09:48:56;30.08;39.91
72355;SHT30;60314;55.040;73.076;2022-09-03T09:51:28;30.06;40.91
72355;SHT30;60314;55.040;73.076;2022-09-03T09:54:16;29.95;39.51
72355;SHT30;60314;55.040;73.076;2022-09-03T09:57:04;29.85;40.53
72355;SHT30;60314;55.040;73.076;2022-09-03T09:59:32;29.81;40.05
72355;SHT30;60314;55.040;73.076;2022-09-03T10:02:10;29.78;42.77
72355;SHT30;60314;55.040;73.076;2022-09-03T10:04:37;29.72;47.11
72355;SHT30;60314;55.040;73.076;2022-09-03T10:09:58;29.67;41.49
72355;SHT30;60314;55.040;73.076;2022-09-03T10:12:41;29.71;40.42
72355;SHT30;60314;55.040;73.076;2022-09-03T10:15:24;29.77;37.83
72355;SHT30;60314;55.040;73.076;2022-09-03T10:18:02;29.89;37.18
72355;SHT30;60314;55.040;73.076;2022-09-03T10:23:14;30.05;38.37
72355;SHT30;60314;55.040;73.076;2022-09-03T10:28:38;30.10;36.70
72355;SHT30;60314;55.040;73.076;2022-09-03T10:31:35;30.10;36.21
72355;SHT30;60314;55.040;73.076;2022-09-03T10:37:20;30.10;35.17
72355;SHT30;60314;55.040;73.076;2022-09-03T10:45:17;29.88;36.69
72355;SHT30;60314;55.040;73.076;2022-09-03T10:48:11;29.82;35.98
72355;SHT30;60314;55.040;73.076;2022-09-03T10:51:05;29.75;37.49
72355;SHT30;60314;55.040;73.076;2022-09-03T11:02:32;29.78;38.46
72355;SHT30;60314;55.040;73.076;2022-09-03T11:05:21;29.79;38.69
72355;SHT30;60314;55.040;73.076;2022-09-03T11:07:51;29.84;39.15
72355;SHT30;60314;55.040;73.076;2022-09-03T11:10:24;29.85;38.33
72355;SHT30;60314;55.040;73.076;2022-09-03T11:13:05;29.84;37.38
72355;SHT30;60314;55.040;73.076;2022-09-03T11:15:46;29.89;38.14
72355;SHT30;60314;55.040;73.076;2022-09-03T11:21:03;29.86;37.62
72355;SHT30;60314;55.040;73.076;2022-09-03T11:23:32;29.93;38.28
72355;SHT30;60314;55.040;73.076;2022-09-03T11:26:06;30.08;38.17
72355;SHT30;60314;55.040;73.076;2022-09-03T11:34:15;30.28;36.82
72355;SHT30;60314;55.040;73.076;2022-09-03T11:36:41;30.29;37.05
72355;SHT30;60314;55.040;73.076;2022-09-03T11:39:31;30.18;35.89
72355;SHT30;60314;55.040;73.076;2022-09-03T11:42:25;30.06;36.49
72355;SHT30;60314;55.040;73.076;2022-09-03T11:44:49;29.98;36.60
72355;SHT30;60314;55.040;73.076;2022-09-03T11:47:35;29.92;36.03
72355;SHT30;60314;55.040;73.076;2022-09-03T11:50:27;29.86;36.80
72355;SHT30;60314;55.040;73.076;2022-09-03T11:53:08;29.82;37.08
72355;SHT30;60314;55.040;73.076;2022-09-03T11:55:54;29.78;37.63
72355;SHT30;60314;55.040;73.076;2022-09-03T11:58:24;29.69;37.16
72355;SHT30;60314;55.040;73.076;2022-09-03T12:00:57;29.62;37.65
72355;SHT30;60314;55.040;73.076;2022-09-03T12:03:27;29.58;37.96
72355;SHT30;60314;55.040;73.076;2022-09-03T12:12:05;29.38;38.63
72355;SHT30;60314;55.040;73.076;2022-09-03T12:14:49;29.30;39.14
72355;SHT30;60314;55.040;73.076;2022-09-03T12:26:22;29.02;39.37
72355;SHT30;60314;55.040;73.076;2022-09-03T12:29:00;28.95;39.37
72355;SHT30;60314;55.040;73.076;2022-09-03T12:31:30;28.95;39.89
72355;SHT30;60314;55.040;73.076;2022-09-03T12:34:12;28.84;40.24
72355;SHT30;60314;55.040;73.076;2022-09-03T12:36:45;28.79;40.26
72355;SHT30;60314;55.040;73.076;2022-09-03T12:39:13;28.75;40.04
72355;SHT30;60314;55.040;73.076;2022-09-03T12:44:26;28.51;40.68
72355;SHT30;60314;55.040;73.076;2022-09-03T12:47:16;28.41;41.04
72355;SHT30;60314;55.040;73.076;2022-09-03T12:49:46;28.29;41.03
72355;SHT30;60314;55.040;73.076;2022-09-03T12:57:37;28.05;41.29
72355;SHT30;60314;55.040;73.076;2022-09-03T13:00:07;27.97;41.43
72355;SHT30;60314;55.040;73.076;2022-09-03T13:05:16;27.81;41.86
72355;SHT30;60314;55.040;73.076;2022-09-03T13:07:52;27.70;41.99
72355;SHT30;60314;55.040;73.076;2022-09-03T13:10:33;27.64;41.96
72355;SHT30;60314;55.040;73.076;2022-09-03T13:13:27;27.54;41.87
72355;SHT30;60314;55.040;73.076;2022-09-03T13:32:41;26.78;44.06
72355;SHT30;60314;55.040;73.076;2022-09-03T13:44:18;26.44;44.74
72355;SHT30;60314;55.040;73.076;2022-09-03T13:46:52;26.41;44.60
72355;SHT30;60314;55.040;73.076;2022-09-03T13:49:30;26.31;45.02
72355;SHT30;60314;55.040;73.076;2022-09-03T13:52:38;26.21;45.20
72355;SHT30;60314;55.040;73.076;2022-09-03T13:55:13;26.07;45.13
72355;SHT30;60314;55.040;73.076;2022-09-03T13:58:27;25.97;45.42
72355;SHT30;60314;55.040;73.076;2022-09-03T14:03:44;25.83;45.51
72355;SHT30;60314;55.040;73.076;2022-09-03T14:15:07;25.58;44.37
72355;SHT30;60314;55.040;73.076;2022-09-03T14:23:45;25.66;42.83
72355;SHT30;60314;55.040;73.076;2022-09-03T14:26:49;25.74;42.55
72355;SHT30;60314;55.040;73.076;2022-09-03T14:29:33;25.80;42.25
72355;SHT30;60314;55.040;73.076;2022-09-03T14:32:25;25.84;42.44
72355;SHT30;60314;55.040;73.076;2022-09-03T14:40:45;25.97;41.28
72355;SHT30;60314;55.040;73.076;2022-09-03T14:52:54;26.10;41.99
72355;SHT30;60314;55.040;73.076;2022-09-03T15:01:31;25.72;42.15
72355;SHT30;60314;55.040;73.076;2022-09-03T15:06:56;25.61;42.93
72355;SHT30;60314;55.040;73.076;2022-09-03T15:10:13;25.55;43.38
72355;SHT30;60314;55.040;73.076;2022-09-03T15:12:39;25.50;43.07
72355;SHT30;60314;55.040;73.076;2022-09-03T15:15:24;25.52;42.42
72355;SHT30;60314;55.040;73.076;2022-09-03T15:18:16;25.47;43.27
72355;SHT30;60314;55.040;73.076;2022-09-03T15:21:48;25.49;43.23
72355;SHT30;60314;55.040;73.076;2022-09-03T15:24:19;25.42;42.99
72355;SHT30;60314;55.040;73.076;2022-09-03T15:29:50;25.34;42.79
72355;SHT30;60314;55.040;73.076;2022-09-03T15:35:56;25.32;42.12
72355;SHT30;60314;55.040;73.076;2022-09-03T15:41:28;25.47;41.92
72355;SHT30;60314;55.040;73.076;2022-09-03T15:44:13;25.52;41.39
72355;SHT30;60314;55.040;73.076;2022-09-03T15:55:22;25.89;40.68
72355;SHT30;60314;55.040;73.076;2022-09-03T15:58:13;25.98;39.26
72355;SHT30;60314;55.040;73.076;2022-09-03T16:04:01;26.25;38.10
72355;SHT30;60314;55.040;73.076;2022-09-03T16:06:46;26.38;37.55
72355;SHT30;60314;55.040;73.076;2022-09-03T16:09:23;26.44;37.22
72355;SHT30;60314;55.040;73.076;2022-09-03T16:15:20;26.62;36.84
72355;SHT30;60314;55.040;73.076;2022-09-03T16:18:02;26.76;36.08
72355;SHT30;60314;55.040;73.076;2022-09-03T16:20:42;26.81;35.60
72355;SHT30;60314;55.040;73.076;2022-09-03T16:26:09;26.99;34.97
72355;SHT30;60314;55.040;73.076;2022-09-03T16:28:59;27.06;34.65
72355;SHT30;60314;55.040;73.076;2022-09-03T16:32:03;27.16;34.70
72355;SHT30;60314;55.040;73.076;2022-09-03T16:52:02;27.49;34.00
72355;SHT30;60314;55.040;73.076;2022-09-03T17:11:49;28.00;32.07
72355;SHT30;60314;55.040;73.076;2022-09-03T17:25:36;27.90;32.30
72355;SHT30;60314;55.040;73.076;2022-09-03T17:28:20;27.84;32.32
72355;SHT30;60314;55.040;73.076;2022-09-03T17:30:51;27.81;32.07
72355;SHT30;60314;55.040;73.076;2022-09-03T17:36:09;27.67;32.51
72355;SHT30;60314;55.040;73.076;2022-09-03T17:44:03;27.58;32.73
72355;SHT30;60314;55.040;73.076;2022-09-03T17:46:42;27.56;32.65
72355;SHT30;60314;55.040;73.076;2022-09-03T17:49:22;27.51;34.40
72355;SHT30;60314;55.040;73.076;2022-09-03T17:52:34;27.47;32.77
72355;SHT30;60314;55.040;73.076;2022-09-03T17:57:56;27.49;33.77
72355;SHT30;60314;55.040;73.076;2022-09-03T18:03:28;27.47;32.72
72355;SHT30;60314;55.040;73.076;2022-09-03T18:06:03;27.51;34.48
72355;SHT30;60314;55.040;73.076;2022-09-03T18:14:37;26.75;43.17
72355;SHT30;60314;55.040;73.076;2022-09-03T18:17:09;25.92;46.76
72355;SHT30;60314;55.040;73.076;2022-09-03T18:19:53;25.36;49.77
72355;SHT30;60314;55.040;73.076;2022-09-03T18:25:36;24.33;55.14
72355;SHT30;60314;55.040;73.076;2022-09-03T18:28:47;23.72;56.70
72355;SHT30;60314;55.040;73.076;2022-09-03T18:31:34;23.55;59.03
72355;SHT30;60314;55.040;73.076;2022-09-03T18:34:35;23.11;59.21
72355;SHT30;60314;55.040;73.076;2022-09-03T18:37:26;22.59;59.96
72355;SHT30;60314;55.040;73.076;2022-09-03T18:40:28;22.00;60.08
72355;SHT30;60314;55.040;73.076;2022-09-03T18:43:24;21.60;61.25
72355;SHT30;60314;55.040;73.076;2022-09-03T18:49:46;20.53;60.87
72355;SHT30;60314;55.040;73.076;2022-09-03T18:52:41;20.25;61.32
72355;SHT30;60314;55.040;73.076;2022-09-03T19:02:20;19.81;61.20
72355;SHT30;60314;55.040;73.076;2022-09-03T19:05:38;19.73;60.78
72355;SHT30;60314;55.040;73.076;2022-09-03T19:08:39;19.49;60.08
72355;SHT30;60314;55.040;73.076;2022-09-03T19:15:23;18.98;61.08
72355;SHT30;60314;55.040;73.076;2022-09-03T19:21:19;18.74;60.63
72355;SHT30;60314;55.040;73.076;2022-09-03T19:24:09;18.79;59.73
72355;SHT30;60314;55.040;73.076;2022-09-03T19:27:10;18.85;59.19
72355;SHT30;60314;55.040;73.076;2022-09-03T19:30:07;18.68;59.66
72355;SHT30;60314;55.040;73.076;2022-09-03T19:48:59;18.25;58.29
72355;SHT30;60314;55.040;73.076;2022-09-03T19:52:11;18.17;59.25
72355;SHT30;60314;55.040;73.076;2022-09-03T19:54:59;18.17;58.05
72355;SHT30;60314;55.040;73.076;2022-09-03T19:57:54;18.18;58.49
72355;SHT30;60314;55.040;73.076;2022-09-03T20:00:40;18.14;58.12
72355;SHT30;60314;55.040;73.076;2022-09-03T20:03:25;18.10;57.72
72355;SHT30;60314;55.040;73.076;2022-09-03T20:06:11;17.95;59.22
72355;SHT30;60314;55.040;73.076;2022-09-03T20:09:02;18.06;58.24
72355;SHT30;60314;55.040;73.076;2022-09-03T20:11:48;17.99;57.70
72355;SHT30;60314;55.040;73.076;2022-09-03T20:14:19;18.02;57.94
72355;SHT30;60314;55.040;73.076;2022-09-03T20:22:39;17.92;58.50
72355;SHT30;60314;55.040;73.076;2022-09-03T20:31:00;17.90;57.49
72355;SHT30;60314;55.040;73.076;2022-09-03T20:36:35;17.85;58.42
72355;SHT30;60314;55.040;73.076;2022-09-03T20:39:19;17.89;57.75
72355;SHT30;60314;55.040;73.076;2022-09-03T20:44:57;17.68;59.04
72355;SHT30;60314;55.040;73.076;2022-09-03T20:47:46;17.62;58.40
72355;SHT30;60314;55.040;73.076;2022-09-03T20:53:35;17.54;58.69
72355;SHT30;60314;55.040;73.076;2022-09-03T20:58:50;17.55;58.11
72355;SHT30;60314;55.040;73.076;2022-09-03T21:01:28;17.54;58.02
72355;SHT30;60314;55.040;73.076;2022-09-03T21:07:00;17.35;58.24
72355;SHT30;60314;55.040;73.076;2022-09-03T21:18:01;17.18;60.11
72355;SHT30;60314;55.040;73.076;2022-09-03T21:20:46;17.27;59.59
72355;SHT30;60314;55.040;73.076;2022-09-03T21:23:20;17.18;59.14
72355;SHT30;60314;55.040;73.076;2022-09-03T21:28:25;16.96;60.36
72355;SHT30;60314;55.040;73.076;2022-09-03T21:30:59;16.93;59.94
72355;SHT30;60314;55.040;73.076;2022-09-03T21:33:54;16.80;60.44
72355;SHT30;60314;55.040;73.076;2022-09-03T21:36:28;16.72;60.43
72355;SHT30;60314;55.040;73.076;2022-09-03T21:39:08;16.76;61.22
72355;SHT30;60314;55.040;73.076;2022-09-03T21:42:00;16.66;61.47
72355;SHT30;60314;55.040;73.076;2022-09-03T21:47:15;16.64;61.89
72355;SHT30;60314;55.040;73.076;2022-09-03T21:50:19;16.59;61.74
72355;SHT30;60314;55.040;73.076;2022-09-03T21:53:02;16.38;62.59
72355;SHT30;60314;55.040;73.076;2022-09-03T22:01:41;16.22;63.48
72355;SHT30;60314;55.040;73.076;2022-09-03T22:04:10;16.15;64.02
72355;SHT30;60314;55.040;73.076;2022-09-03T22:06:39;16.25;64.05
72355;SHT30;60314;55.040;73.076;2022-09-03T22:09:12;16.25;64.20
72355;SHT30;60314;55.040;73.076;2022-09-03T22:12:08;16.12;64.50
72355;SHT30;60314;55.040;73.076;2022-09-03T22:14:51;16.05;64.62
72355;SHT30;60314;55.040;73.076;2022-09-03T22:18:00;15.97;65.06
72355;SHT30;60314;55.040;73.076;2022-09-03T22:20:27;16.00;65.11
72355;SHT30;60314;55.040;73.076;2022-09-03T22:23:07;15.97;64.34
72355;SHT30;60314;55.040;73.076;2022-09-03T22:25:56;15.95;64.45
72355;SHT30;60314;55.040;73.076;2022-09-03T22:29:02;15.98;63.25
72355;SHT30;60314;55.040;73.076;2022-09-03T22:36:55;15.55;64.53
72355;SHT30;60314;55.040;73.076;2022-09-03T22:39:34;15.46;64.24
72355;SHT30;60314;55.040;73.076;2022-09-03T22:52:44;14.78;67.43
72355;SHT30;60314;55.040;73.076;2022-09-03T22:55:19;14.79;67.43
72355;SHT30;60314;55.040;73.076;2022-09-03T22:58:08;14.69;68.09
72355;SHT30;60314;55.040;73.076;2022-09-03T23:00:53;14.68;67.88